Haltwhistle, United Kingdom
Current Conditions -  °F | °C
As of 4:50 AM on Sunday 26 Oct 2014 (Local Time) from EGOM Reporting Station
Broken Clouds Broken Clouds  
Wind Chill: 50°   Ceiling: 3300
Heat Index: 50°   Visibility: 6mi
Dew Point: 46°   Wind: 32mph
Humidity: 87%   Direction: 230°SW
Pressure: 29.77"   Gusts: NA
Location:  54.97°N, 2.46°W
Report Text: EGOM 260350Z AUTO 23028KT 9999 SCT016/// SCT023/// BKN033/// 10/08 Q1008 RERA
Loading
Personal Weather Stations






























Interactive Weather Map
Tropical Storm Tracking
New forecast layout! Learn more

10-Day Weather Forecast

Advertisements
Track Severe Weather on mobile